Time;durP1;ratioP1;P1;durP2;ratioP2;P2;SDS_P1;SDS_P2;PMS_P1;PMS_P2;Temp;Humidity;BMP_temperature;BMP_pressure;BME280_temperature;BME280_humidity;BME280_pressure;Samples;Min_cycle;Max_cycle;Signal;HPM_P1;HPM_P2
2021/12/09 00:00:50;;;;;;;10.07;8.82;;;;;;;-0.09;100.00;100210.28;5238143;28;20123;-81
2021/12/09 00:03:22;;;;;;;8.77;8.07;;;;;;;-0.22;100.00;100204.94;5256112;28;20020;-82
2021/12/09 00:05:52;;;;;;;7.75;7.28;;;;;;;-0.13;100.00;100232.09;5237969;28;20032;-84
2021/12/09 00:08:25;;;;;;;8.45;7.60;;;;;;;-0.16;100.00;100230.66;5256414;28;20087;-84
2021/12/09 00:10:58;;;;;;;10.00;7.63;;;;;;;-0.09;100.00;100250.09;5238489;28;20024;-81
2021/12/09 00:13:29;;;;;;;10.32;9.40;;;;;;;-0.03;100.00;100246.63;5256510;28;20103;-85
2021/12/09 00:16:00;;;;;;;9.68;8.88;;;;;;;-0.04;100.00;100246.81;5256176;28;20048;-82
2021/12/09 00:18:31;;;;;;;8.68;8.07;;;;;;;-0.16;100.00;100233.31;5256468;28;20104;-82
2021/12/09 00:21:01;;;;;;;8.40;7.85;;;;;;;-0.32;100.00;100207.19;5255906;28;20064;-82
2021/12/09 00:23:32;;;;;;;9.35;8.68;;;;;;;-0.06;100.00;100247.03;5255096;28;20052;-82
2021/12/09 00:26:02;;;;;;;10.80;8.77;;;;;;;-0.05;100.00;100246.00;5255923;28;20028;-81
2021/12/09 00:28:33;;;;;;;9.25;8.65;;;;;;;-0.06;100.00;100244.38;5255512;28;20670;-81
2021/12/09 00:31:03;;;;;;;9.63;8.93;;;;;;;-0.10;100.00;100239.66;5255234;28;20024;-84
2021/12/09 00:33:41;;;;;;;9.48;7.53;;;;;;;-0.18;100.00;100224.75;5255252;28;20109;-82
2021/12/09 00:36:14;;;;;;;8.80;8.00;;;;;;;-0.17;100.00;100230.88;5255263;28;20024;-81
2021/12/09 00:38:44;;;;;;;11.20;7.75;;;;;;;-0.08;100.00;100246.41;5255620;28;20051;-81
2021/12/09 00:41:15;;;;;;;12.00;6.78;;;;;;;-0.15;100.00;100250.06;5237195;28;20024;-82
2021/12/09 00:43:45;;;;;;;10.05;8.20;;;;;;;-0.44;100.00;100209.59;5255461;28;20559;-81
2021/12/09 00:46:16;;;;;;;17.38;8.70;;;;;;;-0.33;100.00;100236.56;5255707;28;20103;-82
2021/12/09 00:48:46;;;;;;;11.23;9.48;;;;;;;-0.28;100.00;100226.13;5254964;28;20383;-82
2021/12/09 00:51:18;;;;;;;10.25;9.32;;;;;;;-0.24;100.00;100243.28;5255111;28;20020;-81
2021/12/09 00:53:49;;;;;;;10.95;7.03;;;;;;;-0.27;100.00;100238.38;5236704;28;20058;-81
2021/12/09 00:56:19;;;;;;;8.05;7.10;;;;;;;-0.34;100.00;100235.75;5236954;28;20089;-81
2021/12/09 00:58:50;;;;;;;9.10;8.23;;;;;;;-0.48;100.00;100207.53;5254605;28;20021;-82
2021/12/09 01:01:21;;;;;;;8.02;7.25;;;;;;;-0.45;100.00;100218.56;5255175;28;20130;-81
2021/12/09 01:03:52;;;;;;;8.32;7.57;;;;;;;-0.35;100.00;100221.66;5254816;28;20482;-82
2021/12/09 01:06:22;;;;;;;13.05;8.77;;;;;;;-0.22;100.00;100239.44;5254528;28;20023;-82
2021/12/09 01:08:53;;;;;;;9.52;7.75;;;;;;;-0.36;100.00;100217.38;5237151;28;20035;-81
2021/12/09 01:11:23;;;;;;;8.43;7.47;;;;;;;-0.12;100.00;100239.03;5255269;28;20024;-81
2021/12/09 01:13:54;;;;;;;7.97;7.20;;;;;;;-0.22;100.00;100233.31;5257245;28;20056;-81
2021/12/09 01:16:24;;;;;;;7.35;6.95;;;;;;;-0.14;100.00;100246.38;5238299;28;20025;-84
2021/12/09 01:18:56;;;;;;;7.50;7.00;;;;;;;-0.22;100.00;100234.13;5237171;28;20031;-81
2021/12/09 01:21:27;;;;;;;9.20;7.72;;;;;;;-0.14;100.00;100259.66;5255287;28;20029;-82
2021/12/09 01:23:57;;;;;;;11.43;6.53;;;;;;;-0.19;100.00;100257.59;5236817;28;20032;-82
2021/12/09 01:26:29;;;;;;;9.93;8.93;;;;;;;-0.41;100.00;100237.56;5237917;28;20482;-82
2021/12/09 01:29:05;;;;;;;9.10;7.22;;;;;;;-0.39;100.00;100231.03;5256923;28;20033;-81
2021/12/09 01:31:38;;;;;;;8.00;7.18;;;;;;;-0.20;100.00;100252.50;5238158;28;20105;-81
2021/12/09 01:34:09;;;;;;;8.95;7.25;;;;;;;-0.43;100.00;100210.41;5254574;28;20048;-83
2021/12/09 01:36:39;;;;;;;11.45;7.30;;;;;;;-0.23;100.00;100261.66;5256346;28;20105;-81
2021/12/09 01:39:11;;;;;;;7.00;6.45;;;;;;;-0.39;100.00;100222.25;5254537;28;20029;-82
2021/12/09 01:41:41;;;;;;;12.25;7.15;;;;;;;-0.44;100.00;100236.09;5253778;28;20028;-81
2021/12/09 01:44:12;;;;;;;7.28;6.72;;;;;;;-0.35;100.00;100248.19;5253382;28;20031;-83
2021/12/09 01:46:43;;;;;;;11.90;7.97;;;;;;;-0.73;100.00;100196.66;5253786;28;20024;-82
2021/12/09 01:49:14;;;;;;;12.18;8.07;;;;;;;-0.53;100.00;100226.69;5254541;28;20142;-81
2021/12/09 01:51:45;;;;;;;6.78;6.13;;;;;;;-0.57;100.00;100219.31;5253687;28;20509;-81
2021/12/09 01:54:16;;;;;;;7.57;7.07;;;;;;;-0.51;100.00;100229.16;5253990;28;20021;-82
2021/12/09 01:56:46;;;;;;;20.35;9.10;;;;;;;-0.35;100.00;100250.03;5236572;28;20061;-81
2021/12/09 01:59:17;;;;;;;10.48;7.55;;;;;;;-0.29;100.00;100262.50;5254353;28;20128;-82
2021/12/09 02:01:48;;;;;;;10.45;8.07;;;;;;;-0.33;100.00;100248.00;5253093;28;20032;-82
2021/12/09 02:04:19;;;;;;;7.15;6.55;;;;;;;-0.36;100.00;100251.03;5253069;28;20024;-82
2021/12/09 02:06:49;;;;;;;11.98;7.78;;;;;;;-0.55;100.00;100218.13;5253607;28;20082;-82
2021/12/09 02:09:20;;;;;;;6.72;6.07;;;;;;;-0.50;100.00;100231.59;5235771;28;20024;-81
2021/12/09 02:11:50;;;;;;;7.18;6.57;;;;;;;-0.34;100.00;100256.97;5253671;28;20496;-82
2021/12/09 02:14:21;;;;;;;8.70;6.85;;;;;;;-0.50;100.00;100226.28;5236360;28;20112;-83
2021/12/09 02:16:51;;;;;;;10.13;6.40;;;;;;;-0.55;100.00;100235.84;5253498;28;20024;-82
2021/12/09 02:19:22;;;;;;;8.10;7.55;;;;;;;-0.45;100.00;100247.75;5236172;28;20039;-81
2021/12/09 02:21:52;;;;;;;16.08;7.60;;;;;;;-0.43;100.00;100258.97;5253731;28;20029;-81
2021/12/09 02:24:22;;;;;;;12.70;6.82;;;;;;;-0.65;100.00;100235.44;5254152;28;20031;-82
2021/12/09 02:26:53;;;;;;;7.90;7.32;;;;;;;-0.52;100.00;100248.72;5235402;28;20082;-82
2021/12/09 02:29:24;;;;;;;8.70;7.90;;;;;;;-0.65;100.00;100232.78;5253348;28;20040;-82
2021/12/09 02:31:57;;;;;;;7.82;6.88;;;;;;;-0.73;100.00;100226.63;5235687;28;20115;-81
2021/12/09 02:34:28;;;;;;;8.35;6.78;;;;;;;-0.74;100.00;100217.03;5235359;28;20031;-82
2021/12/09 02:36:59;;;;;;;11.93;6.97;;;;;;;-0.60;100.00;100244.44;5235279;28;20047;-82
2021/12/09 02:39:30;;;;;;;14.88;7.75;;;;;;;-0.46;100.00;100253.25;5235801;28;20029;-80
2021/12/09 02:42:00;;;;;;;7.53;7.05;;;;;;;-0.54;100.00;100248.91;5253361;28;20024;-82
2021/12/09 02:44:31;;;;;;;9.70;7.68;;;;;;;-0.75;100.00;100228.66;5252211;28;20020;-82
2021/12/09 02:47:03;;;;;;;6.68;6.15;;;;;;;-0.56;100.00;100260.75;5253258;28;20059;-82
2021/12/09 02:49:33;;;;;;;7.65;7.05;;;;;;;-0.78;100.00;100228.22;5253387;28;20024;-82
2021/12/09 02:52:04;;;;;;;10.43;7.18;;;;;;;-0.60;100.00;100259.53;5252975;28;20505;-81
2021/12/09 02:54:35;;;;;;;9.20;6.32;;;;;;;-0.57;100.00;100256.44;5234392;28;20024;-81
2021/12/09 02:57:07;;;;;;;15.55;6.55;;;;;;;-0.63;100.00;100251.97;5235085;28;20485;-82
2021/12/09 02:59:37;;;;;;;8.35;7.65;;;;;;;-0.56;100.00;100258.09;5253352;28;20036;-82
2021/12/09 03:02:10;;;;;;;6.82;6.22;;;;;;;-0.60;100.00;100268.31;5252440;28;20031;-81
2021/12/09 03:04:46;;;;;;;8.20;7.30;;;;;;;-0.96;100.00;100233.25;5252906;28;20030;-82
2021/12/09 03:07:31;;;;;;;7.53;6.82;;;;;;;-0.73;100.00;100269.03;5253201;28;20099;-81
2021/12/09 03:10:17;;;;;;;8.82;7.93;;;;;;;-0.79;100.00;100267.19;5252846;28;20020;-81
2021/12/09 03:12:50;;;;;;;6.63;6.15;;;;;;;-0.83;100.00;100263.28;5253288;28;20020;-83
2021/12/09 03:15:22;;;;;;;7.63;6.80;;;;;;;-0.82;100.00;100267.56;5256611;28;20024;-82
2021/12/09 03:17:53;;;;;;;6.88;6.47;;;;;;;-0.85;100.00;100260.00;5256567;28;20055;-82
2021/12/09 03:20:23;;;;;;;10.80;8.60;;;;;;;-1.06;100.00;100236.25;5257740;28;20047;-82
2021/12/09 03:22:54;;;;;;;6.65;6.15;;;;;;;-0.90;100.00;100275.69;5260867;28;20024;-81
2021/12/09 03:25:24;;;;;;;7.85;6.63;;;;;;;-0.88;100.00;100276.31;5240626;28;20129;-81
2021/12/09 03:27:55;;;;;;;8.52;6.93;;;;;;;-0.88;100.00;100276.31;5256822;28;20048;-82
2021/12/09 03:30:25;;;;;;;9.02;6.70;;;;;;;-0.90;100.00;100273.06;5258685;28;20020;-81
2021/12/09 03:32:56;;;;;;;7.47;6.90;;;;;;;-0.87;100.00;100277.97;5238802;28;20508;-82
2021/12/09 03:35:27;;;;;;;9.85;7.38;;;;;;;-1.12;100.00;100256.38;5239500;28;20029;-83
2021/12/09 03:37:58;;;;;;;7.72;7.28;;;;;;;-0.98;100.00;100285.63;5257333;28;20401;-82
2021/12/09 03:40:29;;;;;;;8.07;5.88;;;;;;;-0.97;100.00;100285.44;5261506;28;20043;-81
2021/12/09 03:42:59;;;;;;;5.65;5.22;;;;;;;-0.94;100.00;100295.66;5239831;28;20111;-83
2021/12/09 03:45:30;;;;;;;9.60;7.35;;;;;;;-1.05;100.00;100280.28;5255971;28;20606;-82
2021/12/09 03:48:01;;;;;;;9.38;6.28;;;;;;;-1.26;100.00;100248.56;5258101;28;20024;-82
2021/12/09 03:50:32;;;;;;;5.13;4.75;;;;;;;-1.00;100.00;100296.41;5258896;28;20032;-82
2021/12/09 03:53:03;;;;;;;9.02;5.65;;;;;;;-0.91;100.00;100297.09;5257477;28;20029;-82
2021/12/09 03:55:33;;;;;;;5.55;5.05;;;;;;;-0.94;100.00;100314.22;5257988;28;20508;-82
2021/12/09 03:58:04;;;;;;;5.80;5.40;;;;;;;-1.09;100.00;100290.44;5238103;28;20067;-83
2021/12/09 04:00:35;;;;;;;9.75;6.72;;;;;;;-1.36;100.00;100246.25;5238521;28;20095;-82
2021/12/09 04:03:06;;;;;;;6.57;6.15;;;;;;;-0.97;100.00;100309.28;5238157;28;20025;-86
2021/12/09 04:05:37;;;;;;;5.65;5.10;;;;;;;-1.18;100.00;100277.56;5255813;28;20016;-83
2021/12/09 04:08:08;;;;;;;7.07;6.40;;;;;;;-0.97;100.00;100301.34;5238537;28;20564;-84
2021/12/09 04:10:39;;;;;;;6.15;5.63;;;;;;;-1.10;100.00;100288.00;5255813;28;20117;-83
2021/12/09 04:13:10;;;;;;;10.77;8.38;;;;;;;-0.98;100.00;100307.66;5255949;28;20032;-83
2021/12/09 04:15:41;;;;;;;7.45;6.70;;;;;;;-0.93;100.00;100299.94;5237207;28;20031;-83
2021/12/09 04:18:11;;;;;;;5.82;5.50;;;;;;;-0.83;100.00;100311.00;5255680;28;20112;-82
2021/12/09 04:20:41;;;;;;;6.95;5.50;;;;;;;-0.82;100.00;100296.72;5238137;28;20029;-82
2021/12/09 04:23:12;;;;;;;6.07;4.93;;;;;;;-0.83;100.00;100278.38;5237219;28;20029;-82
2021/12/09 04:25:43;;;;;;;12.32;5.15;;;;;;;-0.60;100.00;100294.81;5254476;28;20077;-82
2021/12/09 04:28:13;;;;;;;11.10;6.93;;;;;;;-0.57;100.00;100293.56;5257078;28;20059;-82
2021/12/09 04:30:44;;;;;;;13.40;5.85;;;;;;;-0.73;100.00;100279.66;5239650;28;20020;-83
2021/12/09 04:33:14;;;;;;;7.38;6.45;;;;;;;-0.75;100.00;100280.84;5238839;28;20468;-83
2021/12/09 04:35:45;;;;;;;6.28;5.63;;;;;;;-0.74;100.00;100280.66;5238858;28;20028;-82
2021/12/09 04:38:15;;;;;;;6.32;5.93;;;;;;;-0.68;100.00;100293.13;5239027;28;20016;-80
2021/12/09 04:40:46;;;;;;;6.80;6.40;;;;;;;-0.99;100.00;100252.19;5256867;28;20020;-82
2021/12/09 04:43:17;;;;;;;15.43;7.63;;;;;;;-0.77;100.00;100299.63;5256791;28;20021;-83
2021/12/09 04:45:47;;;;;;;13.85;7.75;;;;;;;-0.77;100.00;100304.09;5238794;28;20020;-80
2021/12/09 04:48:18;;;;;;;6.00;5.50;;;;;;;-1.01;100.00;100276.25;5256910;28;20104;-83
2021/12/09 04:50:48;;;;;;;7.35;6.82;;;;;;;-1.02;100.00;100290.50;5256778;28;20028;-82
2021/12/09 04:53:19;;;;;;;7.47;6.88;;;;;;;-1.02;100.00;100290.50;5238800;28;20021;-82
2021/12/09 04:55:49;;;;;;;5.63;5.32;;;;;;;-0.98;100.00;100290.94;5256396;28;20024;-82
2021/12/09 04:58:20;;;;;;;8.95;6.90;;;;;;;-0.98;100.00;100304.19;5238389;28;20024;-82
2021/12/09 05:00:54;;;;;;;5.43;5.13;;;;;;;-0.89;100.00;100321.56;5299625;22;20448;-63
2021/12/09 05:03:25;;;;;;;6.38;5.30;;;;;;;-0.91;100.00;100318.31;5275025;28;20024;-62
2021/12/09 05:05:57;;;;;;;7.55;6.80;;;;;;;-0.89;100.00;100310.97;5251024;28;20065;-63
2021/12/09 05:08:31;;;;;;;7.35;6.20;;;;;;;-0.89;100.00;100314.44;5251271;28;20020;-62
2021/12/09 05:11:11;;;;;;;7.80;6.95;;;;;;;-0.87;100.00;100314.25;5269386;28;20031;-63
2021/12/09 05:13:41;;;;;;;6.28;5.65;;;;;;;-0.90;100.00;100299.56;5250721;28;20028;-63
2021/12/09 05:16:12;;;;;;;6.70;6.20;;;;;;;-0.92;100.00;100301.56;5250752;28;20201;-67
2021/12/09 05:18:43;;;;;;;5.97;5.57;;;;;;;-0.81;100.00;100319.56;5250946;28;20024;-63
2021/12/09 05:21:15;;;;;;;5.90;5.50;;;;;;;-1.20;100.00;100271.66;5251075;28;20020;-63
2021/12/09 05:23:45;;;;;;;11.75;7.47;;;;;;;-1.14;100.00;100292.03;5250888;28;20020;-63
2021/12/09 05:26:18;;;;;;;17.23;8.48;;;;;;;-1.02;100.00;100327.59;5250828;28;20024;-62
2021/12/09 05:28:54;;;;;;;9.02;7.22;;;;;;;-0.99;100.00;100329.03;5250773;28;20505;-63
2021/12/09 05:34:16;;;;;;;17.02;7.10;;;;;;;-0.91;100.00;100339.50;5269039;28;20035;-64
2021/12/09 05:36:47;;;;;;;7.03;6.45;;;;;;;-0.87;100.00;100349.53;5250066;28;20027;-63
2021/12/09 05:39:19;;;;;;;7.68;6.82;;;;;;;-0.85;100.00;100351.94;5250891;28;20555;-64
2021/12/09 05:41:49;;;;;;;6.93;6.32;;;;;;;-0.86;100.00;100353.78;5268661;28;20102;-63
2021/12/09 05:44:20;;;;;;;7.90;7.05;;;;;;;-0.82;100.00;100346.28;5250143;28;20139;-64
2021/12/09 05:46:51;;;;;;;12.05;8.00;;;;;;;-0.79;100.00;100341.41;5248085;28;20202;-64
2021/12/09 05:49:21;;;;;;;7.18;6.50;;;;;;;-0.79;100.00;100348.53;5250068;28;20024;-63
2021/12/09 05:51:53;;;;;;;8.80;8.07;;;;;;;-0.78;100.00;100353.66;5249984;28;20028;-64
2021/12/09 05:54:25;;;;;;;7.18;6.57;;;;;;;-0.68;100.00;100354.13;5249815;28;20024;-62
2021/12/09 05:56:55;;;;;;;23.85;7.60;;;;;;;-0.57;100.00;100346.63;5249840;28;20032;-64
2021/12/09 05:59:26;;;;;;;10.30;9.07;;;;;;;-0.44;100.00;100352.00;5250017;28;20400;-62
2021/12/09 06:01:57;;;;;;;12.45;8.13;;;;;;;-0.37;100.00;100347.56;5267816;28;20034;-64
2021/12/09 06:04:28;;;;;;;8.00;7.22;;;;;;;-0.18;100.00;100345.97;5249764;28;20024;-64
2021/12/09 06:06:58;;;;;;;8.50;7.43;;;;;;;-0.09;100.00;100353.59;5248941;28;20145;-63
2021/12/09 06:09:28;;;;;;;10.55;7.45;;;;;;;-0.03;100.00;100355.44;5249439;28;20077;-64
2021/12/09 06:11:59;;;;;;;8.23;7.45;;;;;;;0.03;100.00;100347.69;5249174;28;20024;-64
2021/12/09 06:14:30;;;;;;;13.57;8.70;;;;;;;0.07;100.00;100356.88;5248464;28;20043;-64
2021/12/09 06:17:01;;;;;;;7.28;6.68;;;;;;;-0.04;100.00;100337.06;5249031;28;20028;-63
2021/12/09 06:19:31;;;;;;;12.32;8.40;;;;;;;0.15;100.00;100364.69;5248868;28;20028;-63
2021/12/09 06:22:02;;;;;;;10.85;8.25;;;;;;;0.21;100.00;100359.38;5248839;28;20035;-64
2021/12/09 06:24:32;;;;;;;9.75;6.97;;;;;;;0.30;100.00;100360.00;5248786;28;20511;-64
2021/12/09 06:27:04;;;;;;;8.35;7.65;;;;;;;-0.03;100.00;100309.50;5248698;28;20043;-63
2021/12/09 06:29:34;;;;;;;10.15;9.40;;;;;;;0.46;100.00;100359.63;5248907;28;20024;-63
2021/12/09 06:32:05;;;;;;;7.70;6.65;;;;;;;0.49;100.00;100363.72;5248309;28;20028;-63
2021/12/09 06:34:36;;;;;;;8.23;7.63;;;;;;;0.51;100.00;100362.50;5248347;28;20016;-62
2021/12/09 06:37:06;;;;;;;9.02;7.85;;;;;;;0.39;100.00;100340.22;5248888;28;20032;-63
2021/12/09 06:39:37;;;;;;;7.95;7.35;;;;;;;0.54;100.00;100358.63;5247566;28;20108;-63
2021/12/09 06:42:09;;;;;;;8.70;6.47;;;;;;;0.53;100.00;100352.50;5248206;28;20035;-63
2021/12/09 06:44:39;;;;;;;10.75;8.65;;;;;;;0.59;100.00;100364.13;5248238;28;20016;-63
2021/12/09 06:47:10;;;;;;;17.77;10.05;;;;;;;0.63;100.00;100354.75;5248657;28;20502;-63
2021/12/09 06:49:41;;;;;;;16.10;9.50;;;;;;;0.63;100.00;100352.06;5248658;28;20020;-61
2021/12/09 06:52:11;;;;;;;8.88;7.88;;;;;;;0.69;100.00;100351.28;5247111;28;20192;-63
2021/12/09 06:54:42;;;;;;;8.88;7.97;;;;;;;0.66;100.00;100333.91;5248052;28;20024;-63
2021/12/09 06:57:12;;;;;;;9.27;6.47;;;;;;;0.80;100.00;100349.84;5248412;28;20207;-64
2021/12/09 06:59:43;;;;;;;10.82;8.30;;;;;;;0.83;100.00;100349.44;5248498;28;20031;-63
2021/12/09 07:02:13;;;;;;;13.88;7.72;;;;;;;0.76;100.00;100333.50;5266420;28;20036;-62
2021/12/09 07:04:44;;;;;;;8.77;7.32;;;;;;;0.88;100.00;100350.44;5248214;28;20027;-63
2021/12/09 07:07:14;;;;;;;14.05;7.03;;;;;;;0.90;100.00;100345.75;5248529;28;20024;-63
2021/12/09 07:09:45;;;;;;;9.15;6.75;;;;;;;0.85;100.00;100337.59;5248273;28;20227;-64
2021/12/09 07:12:16;;;;;;;13.43;6.50;;;;;;;0.88;100.00;100339.00;5248008;28;20024;-61
2021/12/09 07:14:46;;;;;;;7.95;7.00;;;;;;;1.01;100.00;100353.09;5245302;28;20028;-63
2021/12/09 07:17:17;;;;;;;8.65;8.00;;;;;;;1.00;100.00;100350.66;5247558;28;20038;-63
2021/12/09 07:19:48;;;;;;;6.95;5.68;;;;;;;1.03;100.00;100355.56;5248472;28;20517;-63
2021/12/09 07:22:18;;;;;;;9.55;7.13;;;;;;;1.06;100.00;100352.50;5248432;28;20020;-62
2021/12/09 07:24:49;;;;;;;6.72;6.32;;;;;;;1.10;100.00;100355.56;5248289;28;20165;-63
2021/12/09 07:27:19;;;;;;;9.07;7.85;;;;;;;1.12;100.00;100351.69;5248295;28;20023;-64
2021/12/09 07:29:50;;;;;;;8.55;7.03;;;;;;;1.15;100.00;100359.25;5249009;28;20024;-64
2021/12/09 07:32:20;;;;;;;9.15;8.30;;;;;;;1.19;100.00;100362.28;5266414;28;20100;-64
2021/12/09 07:34:51;;;;;;;7.05;6.38;;;;;;;1.23;100.00;100360.84;5248087;28;20103;-63
2021/12/09 07:37:21;;;;;;;10.35;7.97;;;;;;;1.24;100.00;100357.97;5248369;28;20020;-63
2021/12/09 07:39:52;;;;;;;7.88;7.03;;;;;;;1.25;100.00;100348.16;5266451;28;20024;-64
2021/12/09 07:42:23;;;;;;;7.82;5.47;;;;;;;1.30;100.00;100365.13;5248152;28;20199;-64
2021/12/09 07:44:53;;;;;;;10.10;7.07;;;;;;;1.33;100.00;100375.38;5248110;28;20082;-63
2021/12/09 07:47:24;;;;;;;7.00;6.47;;;;;;;1.37;100.00;100382.94;5248260;28;20035;-64
2021/12/09 07:49:54;;;;;;;7.10;6.70;;;;;;;1.40;100.00;100385.19;5247953;28;20054;-63
2021/12/09 07:52:25;;;;;;;10.43;7.68;;;;;;;1.42;100.00;100381.28;5248062;28;20024;-64
2021/12/09 07:54:55;;;;;;;11.45;7.32;;;;;;;1.46;100.00;100382.47;5236662;28;20027;-64
2021/12/09 07:57:26;;;;;;;13.98;7.28;;;;;;;1.49;100.00;100389.22;5247767;28;20488;-62
2021/12/09 07:59:57;;;;;;;7.25;6.78;;;;;;;1.50;100.00;100386.38;5249891;28;20399;-63
2021/12/09 08:02:27;;;;;;;17.60;6.15;;;;;;;1.52;100.00;100383.50;5269766;28;20024;-64
2021/12/09 08:04:57;;;;;;;8.20;7.57;;;;;;;1.53;100.00;100377.16;5269565;28;20465;-64
2021/12/09 08:07:28;;;;;;;6.45;5.97;;;;;;;1.49;100.00;100375.94;5251763;28;20127;-63
2021/12/09 08:10:00;;;;;;;6.43;5.85;;;;;;;1.60;100.00;100378.78;5251628;28;20020;-63
2021/12/09 08:12:31;;;;;;;12.05;8.45;;;;;;;1.52;100.00;100367.53;5251772;28;20028;-64
2021/12/09 08:15:02;;;;;;;8.43;7.78;;;;;;;1.66;100.00;100385.13;5250907;28;20444;-63
2021/12/09 08:20:16;;;;;;;6.18;5.85;;;;;;;1.72;100.00;100386.94;5269748;28;20530;-62
2021/12/09 08:22:47;;;;;;;13.55;6.28;;;;;;;1.75;100.00;100393.66;5251382;28;20039;-63
2021/12/09 08:25:18;;;;;;;7.28;6.30;;;;;;;1.77;100.00;100391.63;5250632;28;20112;-63
2021/12/09 08:27:49;;;;;;;8.50;6.28;;;;;;;1.69;100.00;100374.06;5251381;28;20111;-64
2021/12/09 08:30:22;;;;;;;5.30;4.90;;;;;;;1.75;100.00;100391.81;5251346;28;20016;-64
2021/12/09 08:32:53;;;;;;;6.22;5.82;;;;;;;1.83;100.00;100406.75;5252358;28;20560;-64
2021/12/09 08:35:24;;;;;;;12.40;7.47;;;;;;;1.86;100.00;100407.16;5253004;28;20103;-64
2021/12/09 08:37:58;;;;;;;6.55;6.00;;;;;;;1.89;100.00;100408.59;5263837;28;20027;-63
2021/12/09 08:40:29;;;;;;;6.93;6.43;;;;;;;1.54;100.00;100349.53;5258428;28;20024;-63
2021/12/09 08:42:59;;;;;;;12.38;6.57;;;;;;;1.96;100.00;100415.53;5264070;28;20051;-64
2021/12/09 08:45:30;;;;;;;7.97;6.15;;;;;;;1.88;100.00;100405.09;5250776;28;20021;-65
2021/12/09 08:48:00;;;;;;;13.75;8.55;;;;;;;2.04;100.00;100409.13;5259803;28;20115;-65
2021/12/09 08:50:33;;;;;;;7.72;6.95;;;;;;;2.05;100.00;100413.41;5242842;28;20017;-64
2021/12/09 08:53:07;;;;;;;10.30;6.45;;;;;;;2.08;100.00;100413.00;5242997;28;20032;-64
2021/12/09 08:55:39;;;;;;;7.97;7.28;;;;;;;2.13;100.00;100415.84;5259959;28;20032;-63
2021/12/09 08:58:12;;;;;;;7.65;6.85;;;;;;;2.16;100.00;100401.31;5259444;28;20044;-64
2021/12/09 09:00:44;;;;;;;8.57;7.90;;;;;;;2.19;100.00;100406.22;5259273;28;20028;-63
2021/12/09 09:03:15;;;;;;;6.78;6.18;;;;;;;2.21;100.00;100407.63;5231804;28;20024;-64
2021/12/09 09:05:45;;;;;;;8.65;7.00;;;;;;;2.24;100.00;100409.06;5247132;28;20115;-64
2021/12/09 09:08:16;;;;;;;12.43;7.88;;;;;;;2.26;100.00;100407.00;5248843;28;20027;-64
2021/12/09 09:10:47;;;;;;;6.72;6.32;;;;;;;2.26;100.00;100413.16;5228925;28;20025;-64
2021/12/09 09:13:17;;;;;;;10.75;8.13;;;;;;;2.26;100.00;100409.66;5230155;28;20029;-64
2021/12/09 09:15:48;;;;;;;6.90;6.15;;;;;;;2.28;100.00;100407.59;5230185;28;20074;-64
2021/12/09 09:18:19;;;;;;;14.38;8.88;;;;;;;2.29;100.00;100410.06;5246721;28;20039;-63
2021/12/09 09:20:50;;;;;;;7.57;6.90;;;;;;;2.20;100.00;100387.34;5230244;28;20024;-63
2021/12/09 09:23:22;;;;;;;8.75;8.05;;;;;;;2.37;100.00;100408.97;5229489;28;20024;-63
2021/12/09 09:25:53;;;;;;;14.73;9.52;;;;;;;2.48;100.00;100410.97;5229970;28;20476;-64
2021/12/09 09:28:24;;;;;;;9.68;9.02;;;;;;;2.36;100.00;100388.69;5246730;28;20028;-63
2021/12/09 09:30:57;;;;;;;10.18;9.27;;;;;;;2.61;100.00;100415.38;5246743;28;20597;-63
2021/12/09 09:33:29;;;;;;;11.10;10.05;;;;;;;2.68;100.00;100416.16;5246304;28;20544;-67
2021/12/09 09:36:00;;;;;;;10.20;9.30;;;;;;;2.76;100.00;100413.25;5247670;28;20492;-63
2021/12/09 09:38:31;;;;;;;10.23;9.40;;;;;;;2.82;100.00;100414.25;5246215;28;20028;-64
2021/12/09 09:41:13;;;;;;;10.60;9.65;;;;;;;2.74;100.00;100385.16;5246492;28;20135;-62
2021/12/09 09:46:30;;;;;;;10.30;9.48;;;;;;;3.09;100.00;100418.34;5247514;28;20032;-64
2021/12/09 09:49:01;;;;;;;9.48;8.63;;;;;;;3.10;100.00;100421.81;5229571;28;20183;-63
2021/12/09 09:51:33;;;;;;;9.77;9.02;;;;;;;3.05;100.00;100419.81;5246083;28;20032;-64
2021/12/09 09:54:05;;;;;;;9.73;8.80;;;;;;;3.02;100.00;100421.06;5245363;28;20507;-63
2021/12/09 09:56:40;;;;;;;9.75;8.77;;;;;;;3.00;100.00;100422.31;5229087;28;20031;-63
2021/12/09 09:59:12;;;;;;;8.95;7.93;;;;;;;2.87;100.00;100407.25;5229032;28;20496;-66
2021/12/09 10:01:42;;;;;;;9.02;8.40;;;;;;;2.98;100.00;100424.38;5245408;28;20444;-64
2021/12/09 10:04:21;;;;;;;9.93;8.90;;;;;;;2.98;100.00;100424.38;5246754;28;20053;-64
2021/12/09 10:06:52;;;;;;;10.93;9.68;;;;;;;3.01;100.00;100418.59;5228388;28;20035;-63
2021/12/09 10:09:22;;;;;;;9.68;8.98;;;;;;;3.06;100.00;100418.78;5245128;28;20088;-64
2021/12/09 10:11:55;;;;;;;9.15;8.32;;;;;;;3.11;100.00;100424.28;5228277;28;20488;-64
2021/12/09 10:14:35;;;;;;;9.02;8.43;;;;;;;3.09;100.00;100415.69;5244848;28;20051;-64
2021/12/09 10:17:09;;;;;;;9.40;8.68;;;;;;;3.15;100.00;100422.81;5244787;28;20059;-64
2021/12/09 10:19:46;;;;;;;7.90;7.22;;;;;;;3.17;100.00;100414.59;5245138;28;20476;-64
2021/12/09 10:22:27;;;;;;;9.60;8.80;;;;;;;3.20;100.00;100412.28;5244428;28;20105;-64
2021/12/09 10:24:59;;;;;;;9.38;8.65;;;;;;;3.25;100.00;100419.63;5228231;28;20056;-64
2021/12/09 10:27:33;;;;;;;8.77;8.27;;;;;;;3.14;100.00;100383.81;5245163;28;20123;-64
2021/12/09 10:30:13;;;;;;;9.70;8.77;;;;;;;3.30;100.00;100412.59;5244905;28;20033;-65
2021/12/09 10:32:45;;;;;;;7.80;7.30;;;;;;;3.31;100.00;100408.91;5246138;28;20078;-64
2021/12/09 10:35:18;;;;;;;8.35;7.85;;;;;;;3.36;100.00;100405.59;5244503;28;20282;-64
2021/12/09 10:37:50;;;;;;;8.05;7.45;;;;;;;3.30;100.00;100393.13;5244407;28;20024;-65
2021/12/09 10:40:25;;;;;;;8.10;7.60;;;;;;;3.45;100.00;100392.78;5244919;28;20032;-65
2021/12/09 10:43:03;;;;;;;7.80;7.30;;;;;;;3.49;100.00;100400.09;5244806;28;20115;-65
2021/12/09 10:45:36;;;;;;;10.88;9.95;;;;;;;3.54;100.00;100400.25;5228330;28;20511;-65
2021/12/09 10:53:50;;;;;;;14.25;13.25;;;;;;;3.61;100.00;100405.53;5245539;28;20497;-65
2021/12/09 10:56:30;;;;;;;13.23;12.32;;;;;;;3.62;100.00;100409.84;5245580;28;20028;-65
2021/12/09 10:59:02;;;;;;;12.13;11.23;;;;;;;3.62;100.00;100415.19;5228050;28;20058;-65
2021/12/09 11:01:34;;;;;;;10.25;9.50;;;;;;;3.63;100.00;100409.63;5227778;28;20037;-64
2021/12/09 11:04:05;;;;;;;9.50;8.88;;;;;;;3.70;100.00;100402.38;5244384;28;20017;-64
2021/12/09 11:06:39;;;;;;;9.35;8.68;;;;;;;3.62;100.00;100393.81;5244220;28;20388;-64
2021/12/09 11:09:12;;;;;;;10.00;6.85;;;;;;;3.66;100.00;100408.38;5244645;28;20028;-65
2021/12/09 11:11:47;;;;;;;9.02;7.00;;;;;;;3.62;100.00;100409.84;5245627;28;20107;-64
2021/12/09 11:14:21;;;;;;;7.80;7.40;;;;;;;3.57;100.00;100415.03;5244137;28;20039;-64
2021/12/09 11:17:03;;;;;;;8.40;7.72;;;;;;;3.57;100.00;100409.69;5227439;28;20396;-64
2021/12/09 11:22:17;;;;;;;8.23;7.60;;;;;;;3.73;100.00;100403.78;5245497;28;20451;-64
2021/12/09 11:24:56;;;;;;;13.68;8.63;;;;;;;3.80;100.00;100401.00;5227463;28;20036;-64
2021/12/09 11:27:29;;;;;;;11.23;7.47;;;;;;;3.85;100.00;100398.50;5227889;28;20028;-66
2021/12/09 11:30:13;;;;;;;10.32;9.40;;;;;;;3.55;100.00;100342.34;5245430;28;20044;-67
2021/12/09 11:32:52;;;;;;;9.00;8.05;;;;;;;3.94;100.00;100389.97;5245706;28;20031;-65
2021/12/09 11:35:30;;;;;;;8.80;7.95;;;;;;;3.97;100.00;100394.84;5247805;28;20059;-64
2021/12/09 11:40:49;;;;;;;9.68;8.98;;;;;;;4.03;100.00;100393.97;5250441;28;20078;-64
2021/12/09 11:43:25;;;;;;;8.65;7.85;;;;;;;4.00;100.00;100391.75;5232204;28;20041;-65
2021/12/09 11:45:59;;;;;;;8.68;7.95;;;;;;;4.02;100.00;100384.31;5232180;28;20082;-65
2021/12/09 11:48:30;;;;;;;9.98;9.05;;;;;;;4.06;100.00;100390.81;5248681;28;20054;-65
2021/12/09 11:51:01;;;;;;;9.63;9.02;;;;;;;3.97;100.00;100375.34;5231840;28;20561;-64
2021/12/09 11:53:37;;;;;;;10.15;8.45;;;;;;;4.04;100.00;100384.88;5248211;28;20184;-65
2021/12/09 11:56:21;;;;;;;6.93;6.63;;;;;;;3.97;100.00;100376.16;5248453;28;20031;-65
2021/12/09 12:13:51;;;;;;;7.30;6.88;;;;;;;4.24;100.00;100375.81;5249504;28;20139;-64